Time;durP1;ratioP1;P1;durP2;ratioP2;P2;SDS_P1;SDS_P2;PMS_P1;PMS_P2;Temp;Humidity;BMP_temperature;BMP_pressure;BME280_temperature;BME280_humidity;BME280_pressure;Samples;Min_cycle;Max_cycle;Signal;HPM_P1;HPM_P2
2021/12/31 00:00:46;;;;;;;6.23;2.33;;;14.00;99.90;;;;;;5056612;28;20218;-53
2021/12/31 00:03:16;;;;;;;2.47;1.83;;;14.00;99.90;;;;;;5056724;28;20702;-55
2021/12/31 00:05:44;;;;;;;8.83;2.20;;;14.00;99.90;;;;;;5055068;28;20274;-55
2021/12/31 00:08:11;;;;;;;5.73;3.03;;;14.00;99.90;;;;;;5054158;28;20235;-55
2021/12/31 00:10:39;;;;;;;3.50;2.50;;;14.00;99.90;;;;;;5055597;28;20333;-53
2021/12/31 00:13:05;;;;;;;2.93;1.87;;;14.00;99.90;;;;;;5055973;28;20212;-53
2021/12/31 00:15:32;;;;;;;4.10;1.93;;;14.00;99.90;;;;;;5057977;28;20219;-54
2021/12/31 00:17:59;;;;;;;4.27;1.57;;;14.00;99.90;;;;;;5057794;28;20328;-54
2021/12/31 00:20:26;;;;;;;6.37;2.30;;;14.00;99.90;;;;;;5053529;28;20204;-53
2021/12/31 00:23:11;;;;;;;4.50;1.90;;;14.00;99.90;;;;;;5056556;28;20239;-53
2021/12/31 00:25:40;;;;;;;3.97;1.87;;;14.00;99.90;;;;;;5054451;28;20204;-53
2021/12/31 00:28:09;;;;;;;8.57;2.00;;;14.00;99.90;;;;;;5057451;28;20333;-53
2021/12/31 00:30:37;;;;;;;3.90;1.87;;;14.00;99.90;;;;;;5055734;28;20228;-52
2021/12/31 00:33:06;;;;;;;4.73;1.93;;;14.10;99.90;;;;;;5056314;28;20338;-54
2021/12/31 00:35:34;;;;;;;6.27;2.10;;;14.10;99.90;;;;;;5055121;28;20268;-53
2021/12/31 00:38:02;;;;;;;4.73;1.33;;;14.10;99.90;;;;;;5053207;28;20218;-54
2021/12/31 00:40:29;;;;;;;6.97;2.07;;;14.10;99.90;;;;;;5054919;28;20738;-53
2021/12/31 00:42:57;;;;;;;4.23;1.60;;;14.10;99.90;;;;;;5057725;28;20227;-55
2021/12/31 00:45:24;;;;;;;4.43;1.63;;;14.10;99.90;;;;;;5056575;28;20206;-53
2021/12/31 00:47:52;;;;;;;3.20;1.90;;;14.10;99.90;;;;;;5055785;28;20220;-53
2021/12/31 00:50:19;;;;;;;2.53;1.50;;;14.10;99.90;;;;;;5054643;28;20210;-53
2021/12/31 00:52:46;;;;;;;3.90;1.83;;;14.10;99.90;;;;;;5054702;28;20236;-55
2021/12/31 00:55:13;;;;;;;3.03;1.80;;;14.20;99.90;;;;;;5055474;28;20240;-53
2021/12/31 00:57:41;;;;;;;6.07;1.60;;;14.20;99.90;;;;;;5055234;28;20213;-53
2021/12/31 01:00:09;;;;;;;4.73;1.47;;;14.20;99.90;;;;;;5055806;28;20196;-53
2021/12/31 01:02:37;;;;;;;4.23;1.77;;;14.20;99.90;;;;;;5055811;28;20811;-55
2021/12/31 01:05:04;;;;;;;6.33;1.73;;;14.20;99.90;;;;;;5057477;28;20722;-54
2021/12/31 01:07:31;;;;;;;4.63;2.80;;;14.20;99.90;;;;;;5054889;28;20289;-53
2021/12/31 01:10:00;;;;;;;4.87;1.60;;;14.20;99.90;;;;;;5054672;28;20265;-53
2021/12/31 01:12:27;;;;;;;2.77;1.50;;;14.20;99.90;;;;;;5056809;28;20208;-54
2021/12/31 01:15:02;;;;;;;4.23;1.43;;;14.20;99.90;;;;;;5057862;28;20224;-52
2021/12/31 01:17:52;;;;;;;3.97;2.10;;;14.20;99.90;;;;;;5054273;28;20236;-52
2021/12/31 01:20:20;;;;;;;2.17;1.30;;;14.30;99.90;;;;;;5054117;28;20202;-53
2021/12/31 01:22:47;;;;;;;4.70;1.60;;;14.20;99.90;;;;;;5056201;28;20337;-52
2021/12/31 01:25:14;;;;;;;3.77;1.70;;;14.30;99.90;;;;;;5055593;28;20206;-53
2021/12/31 01:27:42;;;;;;;3.03;1.50;;;14.30;99.90;;;;;;5057077;28;20299;-56
2021/12/31 01:30:13;;;;;;;3.67;1.63;;;14.20;99.90;;;;;;5062207;28;20208;-54
2021/12/31 01:32:41;;;;;;;5.10;1.70;;;14.30;99.90;;;;;;5053752;28;20240;-52
2021/12/31 01:35:09;;;;;;;5.27;1.77;;;14.20;99.90;;;;;;5055659;28;20538;-54
2021/12/31 01:37:37;;;;;;;3.50;1.43;;;14.20;99.90;;;;;;5055586;28;20216;-55
2021/12/31 01:40:05;;;;;;;3.80;1.70;;;14.20;99.90;;;;;;5055561;28;20227;-54
2021/12/31 01:42:33;;;;;;;5.77;1.63;;;14.20;99.90;;;;;;5054205;28;20218;-55
2021/12/31 01:45:14;;;;;;;3.83;1.73;;;14.20;99.90;;;;;;5056410;28;20227;-55
2021/12/31 01:50:23;;;;;;;2.53;1.70;;;14.20;99.90;;;;;;5053522;28;20193;-53
2021/12/31 01:52:50;;;;;;;3.50;1.97;;;14.20;99.90;;;;;;5056491;28;20334;-55
2021/12/31 01:55:19;;;;;;;4.90;1.50;;;14.20;99.90;;;;;;5054916;28;20204;-56
2021/12/31 01:57:46;;;;;;;3.40;1.43;;;14.20;99.90;;;;;;5052468;28;20780;-54
2021/12/31 02:00:13;;;;;;;4.13;1.60;;;14.20;99.90;;;;;;5055088;28;20321;-53
2021/12/31 02:02:44;;;;;;;3.33;1.60;;;14.20;99.90;;;;;;5053441;28;20195;-54
2021/12/31 02:05:11;;;;;;;6.07;1.83;;;14.20;99.90;;;;;;5054223;28;20260;-52
2021/12/31 02:07:39;;;;;;;2.27;1.50;;;14.20;99.90;;;;;;5053470;28;20203;-53
2021/12/31 02:10:08;;;;;;;4.03;1.70;;;14.20;99.90;;;;;;5054879;28;20269;-53
2021/12/31 02:12:40;;;;;;;4.87;1.50;;;14.10;99.90;;;;;;5054204;28;20983;-55
2021/12/31 02:15:09;;;;;;;4.93;1.57;;;14.10;99.90;;;;;;5056220;28;20212;-56
2021/12/31 02:17:36;;;;;;;3.60;1.90;;;14.10;99.90;;;;;;5054090;28;20217;-54
2021/12/31 02:20:06;;;;;;;3.93;1.83;;;14.10;99.90;;;;;;5054720;28;20646;-53
2021/12/31 02:22:39;;;;;;;3.30;1.83;;;14.10;99.90;;;;;;5054845;28;20236;-53
2021/12/31 02:25:07;;;;;;;1.83;1.70;;;14.10;99.90;;;;;;5055087;28;20193;-54
2021/12/31 02:27:39;;;;;;;3.37;1.47;;;14.10;99.90;;;;;;5056237;28;20682;-53
2021/12/31 02:30:10;;;;;;;3.50;1.50;;;14.10;99.90;;;;;;5054378;28;20205;-53
2021/12/31 02:32:38;;;;;;;2.30;1.47;;;14.00;99.90;;;;;;5052799;28;20295;-55
2021/12/31 02:35:10;;;;;;;4.23;1.70;;;14.10;99.90;;;;;;5054066;28;20286;-55
2021/12/31 02:37:37;;;;;;;4.43;1.60;;;14.10;99.90;;;;;;5054476;28;20251;-55
2021/12/31 02:40:08;;;;;;;3.80;1.40;;;14.10;99.90;;;;;;5056475;28;20302;-53
2021/12/31 02:42:36;;;;;;;3.10;1.43;;;14.10;99.90;;;;;;5058654;28;20211;-54
2021/12/31 02:45:06;;;;;;;2.33;1.60;;;14.10;99.90;;;;;;5059827;28;20192;-53
2021/12/31 02:47:34;;;;;;;2.50;1.57;;;14.10;99.90;;;;;;5053674;28;20218;-54
2021/12/31 02:50:04;;;;;;;4.13;1.47;;;14.10;99.90;;;;;;5057204;28;20200;-53
2021/12/31 02:52:32;;;;;;;6.43;1.77;;;14.10;99.90;;;;;;5054910;28;20213;-55
2021/12/31 02:55:01;;;;;;;3.23;1.33;;;14.10;99.90;;;;;;5058509;28;20228;-53
2021/12/31 02:57:28;;;;;;;4.10;1.60;;;14.10;99.90;;;;;;5056748;28;20209;-53
2021/12/31 02:59:56;;;;;;;3.30;1.27;;;14.10;99.90;;;;;;5059042;28;20282;-52
2021/12/31 03:02:25;;;;;;;5.37;1.60;;;14.10;99.90;;;;;;5058370;28;20208;-53
2021/12/31 03:04:53;;;;;;;2.53;1.50;;;14.10;99.90;;;;;;5056276;28;20620;-53
2021/12/31 03:07:22;;;;;;;3.13;1.77;;;14.10;99.90;;;;;;5057905;28;20213;-52
2021/12/31 03:09:51;;;;;;;3.87;1.53;;;14.00;99.90;;;;;;5056644;28;20310;-62
2021/12/31 03:12:18;;;;;;;2.73;1.60;;;14.10;99.90;;;;;;5056230;28;20200;-54
2021/12/31 03:14:47;;;;;;;5.50;1.67;;;14.10;99.90;;;;;;5055533;28;20214;-53
2021/12/31 03:17:14;;;;;;;2.60;1.73;;;14.10;99.90;;;;;;5055392;28;20205;-55
2021/12/31 03:19:43;;;;;;;5.03;1.40;;;14.10;99.90;;;;;;5056026;28;20204;-53
2021/12/31 03:22:10;;;;;;;5.30;1.53;;;14.10;99.90;;;;;;5056368;28;20237;-52
2021/12/31 03:24:39;;;;;;;3.60;1.80;;;14.10;99.90;;;;;;5063150;28;20845;-53
2021/12/31 03:27:06;;;;;;;4.60;1.60;;;14.10;99.90;;;;;;5063174;28;20201;-53
2021/12/31 03:29:33;;;;;;;6.40;2.07;;;14.10;99.90;;;;;;5062453;28;20295;-52
2021/12/31 03:32:00;;;;;;;2.53;1.60;;;14.10;99.90;;;;;;5062825;28;20208;-53
2021/12/31 03:34:26;;;;;;;5.07;1.80;;;14.10;99.90;;;;;;5061906;28;20223;-53
2021/12/31 03:36:55;;;;;;;2.97;1.37;;;14.10;99.90;;;;;;5062537;28;20287;-52
2021/12/31 03:39:22;;;;;;;5.83;1.40;;;14.00;99.90;;;;;;5056925;28;20304;-51
2021/12/31 03:41:49;;;;;;;3.03;1.50;;;14.10;99.90;;;;;;5061610;28;20295;-52
2021/12/31 03:44:16;;;;;;;4.53;1.73;;;14.00;99.90;;;;;;5057171;28;20205;-53
2021/12/31 03:46:44;;;;;;;5.73;1.83;;;14.00;99.90;;;;;;5062491;28;21480;-53
2021/12/31 03:49:10;;;;;;;4.10;1.43;;;14.00;99.90;;;;;;5056156;28;20246;-53
2021/12/31 03:51:37;;;;;;;4.73;1.90;;;14.00;99.90;;;;;;5056728;28;20255;-52
2021/12/31 03:54:04;;;;;;;2.33;1.47;;;14.00;99.90;;;;;;5062424;28;20452;-53
2021/12/31 03:56:33;;;;;;;4.67;1.70;;;14.00;99.90;;;;;;5060892;28;20208;-53
2021/12/31 03:58:59;;;;;;;4.07;1.63;;;14.00;99.90;;;;;;5061919;28;20339;-54
2021/12/31 04:01:27;;;;;;;4.00;1.47;;;13.90;99.90;;;;;;5057597;28;20229;-52
2021/12/31 04:03:55;;;;;;;1.77;1.60;;;13.90;99.90;;;;;;5060729;28;20210;-53
2021/12/31 04:06:23;;;;;;;3.90;1.70;;;13.90;99.90;;;;;;5061377;28;20208;-53
2021/12/31 04:08:50;;;;;;;6.40;1.93;;;13.90;99.90;;;;;;5061434;28;20270;-52
2021/12/31 04:11:18;;;;;;;4.00;1.57;;;13.90;99.90;;;;;;5060715;28;20205;-53
2021/12/31 04:13:45;;;;;;;3.97;1.80;;;13.90;99.90;;;;;;5062382;28;20270;-52
2021/12/31 04:16:12;;;;;;;1.87;1.30;;;13.90;99.90;;;;;;5058864;28;20246;-54
2021/12/31 04:18:39;;;;;;;4.43;1.70;;;13.90;99.90;;;;;;5055046;28;20274;-52
2021/12/31 04:21:06;;;;;;;4.77;1.80;;;13.90;99.90;;;;;;5059615;28;20211;-53
2021/12/31 04:23:37;;;;;;;3.07;1.53;;;13.90;99.90;;;;;;5061907;28;20198;-52
2021/12/31 04:26:06;;;;;;;4.20;1.80;;;13.90;99.90;;;;;;5060707;28;20209;-52
2021/12/31 04:28:32;;;;;;;4.43;1.50;;;13.90;99.90;;;;;;5062047;28;20295;-53
2021/12/31 04:30:59;;;;;;;3.50;1.73;;;13.90;99.90;;;;;;5061462;28;20258;-52
2021/12/31 04:33:26;;;;;;;4.97;2.10;;;13.90;99.90;;;;;;5061303;28;20240;-52
2021/12/31 04:35:53;;;;;;;3.37;1.70;;;13.90;99.90;;;;;;5059549;28;20197;-51
2021/12/31 04:38:20;;;;;;;6.37;1.87;;;13.90;99.90;;;;;;5061003;28;20274;-52
2021/12/31 04:40:47;;;;;;;3.97;1.70;;;13.90;99.90;;;;;;5060546;28;20204;-53
2021/12/31 04:43:13;;;;;;;2.33;1.70;;;13.90;99.90;;;;;;5055993;28;20732;-53
2021/12/31 04:45:40;;;;;;;5.83;2.10;;;13.90;99.90;;;;;;5060522;28;20200;-53
2021/12/31 04:48:07;;;;;;;7.93;2.37;;;13.90;99.90;;;;;;5060796;28;20211;-52
2021/12/31 04:50:34;;;;;;;5.33;1.70;;;13.80;99.90;;;;;;5058411;28;20660;-57
2021/12/31 04:53:04;;;;;;;5.17;1.77;;;13.80;99.90;;;;;;5055839;28;20209;-53
2021/12/31 04:55:31;;;;;;;2.23;1.73;;;13.80;99.90;;;;;;5061387;28;20234;-52
2021/12/31 04:57:58;;;;;;;4.10;1.97;;;13.80;99.90;;;;;;5060620;28;20248;-52
2021/12/31 05:00:25;;;;;;;5.77;2.10;;;13.80;99.90;;;;;;5060863;28;20254;-53
2021/12/31 05:02:52;;;;;;;4.80;1.80;;;13.80;99.90;;;;;;5060035;28;20262;-54
2021/12/31 05:05:19;;;;;;;3.20;1.90;;;13.80;99.90;;;;;;5059634;28;20253;-53
2021/12/31 05:07:46;;;;;;;3.07;1.73;;;13.80;99.90;;;;;;5060592;28;20204;-53
2021/12/31 05:10:14;;;;;;;3.77;2.00;;;13.80;99.90;;;;;;5061808;28;20232;-52
2021/12/31 05:12:41;;;;;;;3.80;1.80;;;13.80;99.90;;;;;;5060724;28;20612;-52
2021/12/31 05:15:10;;;;;;;4.13;2.00;;;13.80;99.90;;;;;;5060003;28;20301;-53
2021/12/31 05:17:37;;;;;;;2.73;2.03;;;13.80;99.90;;;;;;5076082;28;20207;-52
2021/12/31 05:20:06;;;;;;;4.37;1.87;;;13.70;99.90;;;;;;5059523;28;20242;-52
2021/12/31 05:22:33;;;;;;;4.20;1.70;;;13.70;99.90;;;;;;5059571;28;20236;-52
2021/12/31 05:25:00;;;;;;;4.47;2.10;;;13.70;99.90;;;;;;5061040;28;20201;-52
2021/12/31 05:27:27;;;;;;;3.53;1.90;;;13.70;99.90;;;;;;5057092;28;20227;-52
2021/12/31 05:29:54;;;;;;;4.30;2.10;;;13.70;99.90;;;;;;5060491;28;20720;-52
2021/12/31 05:32:21;;;;;;;4.03;2.30;;;13.70;99.90;;;;;;5057105;28;20577;-53
2021/12/31 05:34:48;;;;;;;3.23;1.70;;;13.70;99.90;;;;;;5059069;28;20208;-53
2021/12/31 05:37:15;;;;;;;3.73;2.00;;;13.70;99.90;;;;;;5060605;28;20678;-52
2021/12/31 05:39:44;;;;;;;4.73;2.23;;;13.60;99.90;;;;;;5060182;28;20268;-52
2021/12/31 05:42:12;;;;;;;5.47;2.00;;;13.60;99.90;;;;;;5060607;28;20205;-54
2021/12/31 05:44:39;;;;;;;4.40;1.70;;;13.60;99.90;;;;;;5060648;28;20230;-52
2021/12/31 05:47:06;;;;;;;5.87;2.13;;;13.60;99.90;;;;;;5060302;28;20232;-52
2021/12/31 05:49:34;;;;;;;6.13;2.00;;;13.50;99.90;;;;;;5059071;28;20286;-52
2021/12/31 05:52:00;;;;;;;5.27;2.33;;;13.50;99.90;;;;;;5059345;28;20212;-52
2021/12/31 05:54:27;;;;;;;4.43;2.00;;;13.40;99.90;;;;;;5060786;28;20207;-52
2021/12/31 05:56:55;;;;;;;2.67;1.80;;;13.40;99.90;;;;;;5059720;28;20575;-52
2021/12/31 05:59:22;;;;;;;4.37;1.70;;;13.30;99.90;;;;;;5059916;28;20219;-54
2021/12/31 06:01:48;;;;;;;3.37;1.80;;;13.30;99.90;;;;;;5060113;28;20231;-53
2021/12/31 06:04:16;;;;;;;4.03;1.80;;;13.30;99.90;;;;;;5058348;28;20207;-54
2021/12/31 06:06:44;;;;;;;3.30;1.80;;;13.20;99.90;;;;;;5060386;28;20291;-53
2021/12/31 06:09:13;;;;;;;3.70;2.07;;;13.20;99.90;;;;;;5055014;28;20270;-53
2021/12/31 06:11:43;;;;;;;4.13;1.73;;;13.20;99.90;;;;;;5060604;28;20199;-54
2021/12/31 06:14:11;;;;;;;3.53;2.17;;;13.10;99.90;;;;;;5059270;28;20662;-54
2021/12/31 06:16:43;;;;;;;7.87;2.57;;;13.10;99.90;;;;;;5058610;28;20212;-53
2021/12/31 06:19:11;;;;;;;3.47;1.80;;;13.20;99.90;;;;;;5058197;28;20243;-52
2021/12/31 06:21:40;;;;;;;2.57;1.77;;;13.10;99.90;;;;;;5058625;28;20285;-53
2021/12/31 06:24:08;;;;;;;4.73;2.60;;;13.10;99.90;;;;;;5059557;28;20210;-53
2021/12/31 06:26:35;;;;;;;3.10;1.73;;;13.10;99.90;;;;;;5059954;28;20203;-53
2021/12/31 06:29:03;;;;;;;3.43;2.10;;;13.00;99.90;;;;;;5059198;28;20208;-52
2021/12/31 06:31:30;;;;;;;5.07;2.00;;;13.00;99.90;;;;;;5058754;28;20306;-53
2021/12/31 06:33:57;;;;;;;5.27;2.60;;;12.90;99.90;;;;;;5055220;28;20534;-55
2021/12/31 06:36:24;;;;;;;2.60;1.90;;;12.90;99.90;;;;;;5054711;28;20239;-52
2021/12/31 06:38:51;;;;;;;5.00;1.77;;;12.90;99.90;;;;;;5059997;28;20679;-53
2021/12/31 06:41:20;;;;;;;4.30;1.93;;;12.80;99.90;;;;;;5058939;28;20543;-54
2021/12/31 06:43:47;;;;;;;4.23;1.93;;;12.80;99.90;;;;;;5059367;28;20592;-54
2021/12/31 06:46:14;;;;;;;4.03;1.80;;;12.80;99.90;;;;;;5060289;28;20532;-53
2021/12/31 06:48:41;;;;;;;4.43;2.23;;;12.80;99.90;;;;;;5059005;28;20203;-53
2021/12/31 06:51:10;;;;;;;4.47;1.93;;;12.80;99.90;;;;;;5073782;28;20249;-53
2021/12/31 06:53:37;;;;;;;2.43;1.70;;;12.80;99.90;;;;;;5059160;28;20202;-52
2021/12/31 06:56:04;;;;;;;4.73;1.60;;;12.80;99.90;;;;;;5053098;28;20211;-54
2021/12/31 06:58:31;;;;;;;4.27;2.00;;;12.80;99.90;;;;;;5058865;28;20856;-54
2021/12/31 07:00:58;;;;;;;2.83;1.80;;;12.70;99.90;;;;;;5053053;28;20652;-53
2021/12/31 07:03:25;;;;;;;2.17;1.70;;;12.70;99.90;;;;;;5077850;28;20209;-53
2021/12/31 07:05:51;;;;;;;3.53;2.10;;;12.70;99.90;;;;;;5061769;28;20205;-53
2021/12/31 07:08:23;;;;;;;3.37;1.80;;;12.60;99.90;;;;;;5062455;28;20251;-54
2021/12/31 07:10:50;;;;;;;4.37;1.87;;;12.60;99.90;;;;;;5058368;28;20205;-53
2021/12/31 07:13:17;;;;;;;4.27;2.10;;;12.60;99.90;;;;;;5060363;28;20229;-53
2021/12/31 07:15:48;;;;;;;2.57;1.87;;;12.60;99.90;;;;;;5063152;28;20331;-54
2021/12/31 07:18:17;;;;;;;3.53;1.90;;;12.60;99.90;;;;;;5062172;28;20210;-53
2021/12/31 07:20:44;;;;;;;4.30;1.73;;;12.60;99.90;;;;;;5056730;28;20634;-53
2021/12/31 07:23:13;;;;;;;4.13;2.13;;;12.60;99.90;;;;;;5062074;28;20242;-52
2021/12/31 07:25:40;;;;;;;3.00;1.90;;;12.60;99.90;;;;;;5062920;28;20197;-52
2021/12/31 07:28:09;;;;;;;3.77;1.70;;;12.50;99.90;;;;;;5062048;28;20198;-53
2021/12/31 07:30:38;;;;;;;3.03;1.70;;;12.50;99.90;;;;;;5058481;28;20258;-53
2021/12/31 07:33:06;;;;;;;6.03;2.00;;;12.50;99.90;;;;;;5062288;28;20202;-54
2021/12/31 07:35:32;;;;;;;4.40;2.03;;;12.50;99.90;;;;;;5057359;28;20292;-53
2021/12/31 07:38:00;;;;;;;5.90;2.00;;;12.50;99.90;;;;;;5063097;28;20236;-54
2021/12/31 07:40:38;;;;;;;5.83;2.20;;;12.50;99.90;;;;;;5061065;28;20253;-52
2021/12/31 07:43:06;;;;;;;3.57;1.67;;;12.50;99.90;;;;;;5062352;28;20199;-53
2021/12/31 07:45:33;;;;;;;1.87;1.60;;;12.50;99.90;;;;;;5062940;28;20647;-53
2021/12/31 07:48:01;;;;;;;1.80;1.70;;;12.50;99.90;;;;;;5062270;28;20212;-52
2021/12/31 07:50:28;;;;;;;4.57;1.63;;;12.50;99.90;;;;;;5059809;28;21094;-53
2021/12/31 07:52:56;;;;;;;3.50;1.97;;;12.50;99.90;;;;;;5061872;28;20296;-53
2021/12/31 07:55:23;;;;;;;4.63;2.10;;;12.50;99.90;;;;;;5062353;28;20765;-53
2021/12/31 07:57:50;;;;;;;2.53;1.60;;;12.50;99.90;;;;;;5062426;28;20667;-52
2021/12/31 08:00:17;;;;;;;3.70;2.00;;;12.50;99.90;;;;;;5061727;28;20226;-53
2021/12/31 08:02:43;;;;;;;2.10;1.47;;;12.50;99.90;;;;;;5056042;28;20214;-52
2021/12/31 08:05:10;;;;;;;3.23;1.67;;;12.50;99.90;;;;;;5058161;28;20217;-53
2021/12/31 08:07:37;;;;;;;3.00;1.50;;;12.60;99.90;;;;;;5056893;28;20235;-54
2021/12/31 08:10:05;;;;;;;3.93;1.57;;;12.50;99.90;;;;;;5062045;28;20241;-53
2021/12/31 08:12:51;;;;;;;3.27;1.60;;;12.60;99.90;;;;;;5062103;28;20240;-52
2021/12/31 08:15:18;;;;;;;2.83;1.70;;;12.60;99.90;;;;;;5062265;28;20305;-53
2021/12/31 08:17:45;;;;;;;3.97;1.70;;;12.50;99.90;;;;;;5061184;28;20253;-52
2021/12/31 08:20:12;;;;;;;3.03;2.00;;;12.60;99.90;;;;;;5061392;28;20717;-52
2021/12/31 08:22:39;;;;;;;3.37;1.63;;;12.60;99.90;;;;;;5061396;28;20793;-52
2021/12/31 08:25:06;;;;;;;2.80;1.50;;;12.60;99.90;;;;;;5062394;28;20709;-52
2021/12/31 08:27:38;;;;;;;4.57;1.40;;;12.60;99.90;;;;;;5061209;28;20293;-56
2021/12/31 08:30:07;;;;;;;2.40;1.53;;;12.60;99.90;;;;;;5061604;28;20215;-51
2021/12/31 08:32:35;;;;;;;3.23;2.07;;;12.60;99.90;;;;;;5061795;28;20237;-53
2021/12/31 08:35:03;;;;;;;2.17;1.57;;;12.60;99.90;;;;;;5060668;28;20210;-53
2021/12/31 08:37:30;;;;;;;2.93;1.70;;;12.60;99.90;;;;;;5060830;28;20257;-52
2021/12/31 08:39:57;;;;;;;1.87;1.40;;;12.60;99.90;;;;;;5057382;28;20404;-53
2021/12/31 08:42:25;;;;;;;2.77;1.80;;;12.60;99.90;;;;;;5059375;28;21226;-53
2021/12/31 08:44:52;;;;;;;2.83;1.50;;;12.70;99.90;;;;;;5060137;28;20253;-52
2021/12/31 08:47:24;;;;;;;2.03;1.50;;;12.70;99.90;;;;;;5062146;28;20567;-54
2021/12/31 08:49:51;;;;;;;3.63;1.80;;;12.60;99.90;;;;;;5055055;28;20231;-54
2021/12/31 08:52:18;;;;;;;3.10;1.37;;;12.60;99.90;;;;;;5058384;28;20234;-55
2021/12/31 08:54:44;;;;;;;1.63;1.47;;;12.60;99.90;;;;;;5076588;28;20634;-53
2021/12/31 08:57:12;;;;;;;3.30;1.57;;;12.60;99.90;;;;;;5061282;28;20242;-54
2021/12/31 08:59:38;;;;;;;4.93;1.67;;;12.60;99.90;;;;;;5060991;28;20611;-53
2021/12/31 09:02:05;;;;;;;3.53;1.47;;;12.50;99.90;;;;;;5059046;28;20290;-53
2021/12/31 09:04:32;;;;;;;2.90;1.30;;;12.50;99.90;;;;;;5059419;28;20206;-54
2021/12/31 09:06:59;;;;;;;4.47;1.67;;;12.50;99.90;;;;;;5060750;28;20238;-53
2021/12/31 09:09:26;;;;;;;1.77;1.47;;;12.50;99.90;;;;;;5060800;28;20813;-53
2021/12/31 09:11:54;;;;;;;3.80;1.80;;;12.60;99.90;;;;;;5060921;28;20613;-54
2021/12/31 09:14:21;;;;;;;1.70;1.60;;;12.60;99.90;;;;;;5060253;28;20208;-54
2021/12/31 09:16:50;;;;;;;3.27;1.50;;;12.60;99.90;;;;;;5060538;28;20745;-54
2021/12/31 09:19:17;;;;;;;2.50;1.60;;;12.60;99.90;;;;;;5054680;28;20263;-52
2021/12/31 09:21:44;;;;;;;4.07;2.50;;;12.70;99.90;;;;;;5058174;28;20726;-53
2021/12/31 09:24:11;;;;;;;2.33;1.50;;;12.70;99.90;;;;;;5056148;28;20326;-54
2021/12/31 09:26:38;;;;;;;2.77;1.77;;;12.80;99.90;;;;;;5059580;28;20293;-54
2021/12/31 09:29:05;;;;;;;2.90;1.60;;;12.80;99.90;;;;;;5057044;28;20211;-53
2021/12/31 09:31:32;;;;;;;2.37;1.40;;;12.80;99.90;;;;;;5059239;28;20207;-53
2021/12/31 09:33:58;;;;;;;2.17;1.77;;;12.90;99.90;;;;;;5055447;28;20242;-53
2021/12/31 09:36:25;;;;;;;2.60;1.37;;;12.80;99.90;;;;;;5060222;28;20207;-53
2021/12/31 09:38:52;;;;;;;3.33;1.60;;;12.80;99.90;;;;;;5060746;28;20290;-53
2021/12/31 09:41:19;;;;;;;1.50;1.23;;;12.90;99.90;;;;;;5060372;28;20644;-53
2021/12/31 09:43:50;;;;;;;2.13;1.40;;;12.90;99.90;;;;;;5059336;28;20278;-54
2021/12/31 09:46:19;;;;;;;4.13;1.67;;;12.90;99.90;;;;;;5060258;28;20199;-54
2021/12/31 09:48:46;;;;;;;2.33;1.43;;;12.90;99.90;;;;;;5059719;28;20272;-53
2021/12/31 09:51:14;;;;;;;2.97;1.10;;;12.90;99.90;;;;;;5058672;28;20296;-53
2021/12/31 09:53:41;;;;;;;2.27;1.50;;;12.90;99.90;;;;;;5059553;28;20217;-53
2021/12/31 09:56:08;;;;;;;2.90;1.73;;;13.00;99.90;;;;;;5059333;28;20206;-53
2021/12/31 09:58:36;;;;;;;3.00;1.53;;;13.00;99.90;;;;;;5060081;28;20690;-53
2021/12/31 10:01:04;;;;;;;3.23;1.77;;;12.90;99.90;;;;;;5053993;28;20222;-53
2021/12/31 10:03:36;;;;;;;2.63;1.80;;;12.90;99.90;;;;;;5059983;28;20229;-54
2021/12/31 10:06:09;;;;;;;4.07;1.73;;;12.90;99.90;;;;;;5058063;28;20217;-55
2021/12/31 10:08:42;;;;;;;3.30;1.50;;;12.90;99.90;;;;;;5059502;28;20225;-55
2021/12/31 10:11:20;;;;;;;1.90;1.47;;;12.90;99.90;;;;;;5059793;28;20274;-55
2021/12/31 10:13:59;;;;;;;2.80;1.80;;;12.80;99.90;;;;;;5059556;28;20225;-52
2021/12/31 10:16:39;;;;;;;2.13;1.53;;;12.90;99.90;;;;;;5059882;28;20206;-55
2021/12/31 10:19:12;;;;;;;3.10;1.87;;;12.80;99.90;;;;;;5058343;28;20256;-55
2021/12/31 10:21:48;;;;;;;2.73;1.50;;;12.80;99.90;;;;;;5059664;28;20698;-55
2021/12/31 10:24:21;;;;;;;2.27;1.63;;;12.80;99.90;;;;;;5058723;28;20249;-54
2021/12/31 10:26:50;;;;;;;2.90;1.60;;;12.80;99.90;;;;;;5058947;28;20200;-54
2021/12/31 10:29:17;;;;;;;2.60;1.57;;;12.90;99.90;;;;;;5056958;28;20212;-54
2021/12/31 10:31:46;;;;;;;6.67;1.60;;;13.00;99.90;;;;;;5054514;28;20618;-54
2021/12/31 10:34:34;;;;;;;2.37;1.63;;;12.90;99.90;;;;;;5062503;28;20275;-54
2021/12/31 10:37:12;;;;;;;4.70;1.87;;;13.00;99.90;;;;;;5063629;28;20204;-55
2021/12/31 10:39:39;;;;;;;2.37;1.80;;;13.00;99.90;;;;;;5063903;28;20626;-54
2021/12/31 10:42:14;;;;;;;3.47;1.60;;;13.10;99.90;;;;;;5063607;28;20199;-55
2021/12/31 10:44:51;;;;;;;3.17;1.47;;;13.10;99.90;;;;;;5063154;28;20246;-56
2021/12/31 10:47:20;;;;;;;4.37;1.70;;;13.10;99.90;;;;;;5064086;28;20755;-54
2021/12/31 10:50:08;;;;;;;3.10;2.00;;;13.10;99.90;;;;;;5057454;28;20250;-53
2021/12/31 10:53:07;;;;;;;3.17;1.87;;;13.10;99.90;;;;;;5063370;28;20208;-54
2021/12/31 10:55:39;;;;;;;3.30;1.80;;;13.10;99.90;;;;;;5064195;28;20239;-53
2021/12/31 10:58:11;;;;;;;2.30;1.70;;;13.10;99.90;;;;;;5063721;28;20204;-53
2021/12/31 11:00:44;;;;;;;4.43;1.80;;;13.10;99.90;;;;;;5062930;28;20255;-53
2021/12/31 11:03:11;;;;;;;3.07;1.90;;;13.20;99.90;;;;;;5062141;28;20199;-54
2021/12/31 11:05:38;;;;;;;4.37;2.27;;;13.30;99.90;;;;;;5062736;28;20218;-54
2021/12/31 11:08:13;;;;;;;2.30;2.10;;;13.40;99.90;;;;;;5062043;28;20245;-54
2021/12/31 11:10:41;;;;;;;2.20;1.53;;;13.50;99.90;;;;;;5063495;28;20703;-54
2021/12/31 11:13:14;;;;;;;5.00;2.43;;;13.50;99.90;;;;;;5062863;28;20258;-52
2021/12/31 11:15:43;;;;;;;2.60;1.70;;;13.40;99.90;;;;;;5063250;28;20235;-54
2021/12/31 11:18:12;;;;;;;4.20;1.67;;;13.50;99.90;;;;;;5063250;28;20576;-53
2021/12/31 11:20:42;;;;;;;3.30;2.13;;;13.50;99.90;;;;;;5061397;28;20213;-54
2021/12/31 11:23:09;;;;;;;4.43;1.63;;;13.50;99.90;;;;;;5063409;28;20238;-53
2021/12/31 11:26:01;;;;;;;2.40;1.60;;;13.60;99.90;;;;;;5062266;28;20383;-54
2021/12/31 11:28:38;;;;;;;2.87;1.30;;;13.70;99.90;;;;;;5062266;28;20235;-53
2021/12/31 11:31:18;;;;;;;2.73;1.63;;;13.80;99.90;;;;;;5063138;28;20204;-55
2021/12/31 11:34:08;;;;;;;3.97;1.90;;;13.80;99.90;;;;;;5062337;28;20212;-54
2021/12/31 11:36:44;;;;;;;3.60;1.90;;;13.80;99.90;;;;;;5052932;28;20212;-55
2021/12/31 11:39:37;;;;;;;4.80;2.07;;;13.70;99.90;;;;;;5062776;28;20205;-54
2021/12/31 11:42:06;;;;;;;2.60;1.60;;;13.60;99.90;;;;;;5061007;28;20257;-55
2021/12/31 11:44:34;;;;;;;4.33;1.83;;;13.60;99.90;;;;;;5061352;28;20208;-55
2021/12/31 11:47:14;;;;;;;5.43;1.80;;;13.60;99.90;;;;;;5062620;28;20211;-55
2021/12/31 11:49:42;;;;;;;7.53;2.27;;;13.90;99.90;;;;;;5054627;28;20237;-53
2021/12/31 11:52:13;;;;;;;5.70;2.00;;;14.00;99.90;;;;;;5062027;28;20223;-54
2021/12/31 11:54:44;;;;;;;3.10;1.63;;;14.10;99.90;;;;;;5062441;28;20213;-54
2021/12/31 11:57:19;;;;;;;5.00;1.83;;;14.10;99.90;;;;;;5059588;28;20197;-53
2021/12/31 11:59:47;;;;;;;1.97;1.57;;;14.40;99.90;;;;;;5061194;28;20725;-53
2021/12/31 12:02:32;;;;;;;3.23;1.80;;;14.20;99.90;;;;;;5060792;28;20211;-54
2021/12/31 12:04:59;;;;;;;3.93;2.63;;;14.00;99.90;;;;;;5060021;28;20233;-54
2021/12/31 12:07:37;;;;;;;2.93;1.80;;;13.90;99.90;;;;;;5062275;28;20222;-54
2021/12/31 12:10:04;;;;;;;7.07;2.00;;;13.90;99.90;;;;;;5061805;28;20327;-55
2021/12/31 12:12:36;;;;;;;3.70;1.70;;;13.90;99.90;;;;;;5062701;28;20209;-53
2021/12/31 12:15:21;;;;;;;3.77;1.80;;;13.80;99.90;;;;;;5061610;28;20215;-51
2021/12/31 12:17:48;;;;;;;4.53;1.97;;;13.80;99.90;;;;;;5057767;28;20210;-53
2021/12/31 12:20:19;;;;;;;3.23;1.73;;;13.70;99.90;;;;;;5060364;28;20250;-52
2021/12/31 12:22:52;;;;;;;4.20;2.07;;;13.70;99.90;;;;;;5061335;28;20283;-57
2021/12/31 12:25:27;;;;;;;4.93;1.97;;;13.80;99.90;;;;;;5057811;28;20208;-52
2021/12/31 12:28:07;;;;;;;2.83;2.07;;;13.70;99.90;;;;;;5061045;28;20215;-52
2021/12/31 12:30:44;;;;;;;2.23;1.90;;;13.70;99.90;;;;;;5075267;28;20203;-54
2021/12/31 12:35:40;;;;;;;4.03;2.17;;;13.70;99.90;;;;;;5060110;28;20215;-54
2021/12/31 12:38:13;;;;;;;2.17;1.77;;;13.70;99.90;;;;;;5061304;28;20209;-54
2021/12/31 12:40:50;;;;;;;2.63;2.00;;;13.80;99.90;;;;;;5060304;28;20247;-53
2021/12/31 12:43:32;;;;;;;4.13;2.03;;;13.70;99.90;;;;;;5061963;28;20204;-53
2021/12/31 12:46:07;;;;;;;5.40;1.90;;;13.70;99.90;;;;;;5060956;28;20210;-53
2021/12/31 12:48:42;;;;;;;2.40;1.47;;;13.70;99.90;;;;;;5056897;28;20211;-55
2021/12/31 12:51:11;;;;;;;5.23;1.90;;;13.70;99.90;;;;;;5058456;28;20683;-53
2021/12/31 12:53:41;;;;;;;4.70;2.00;;;13.70;99.90;;;;;;5060902;28;20207;-54
2021/12/31 12:56:18;;;;;;;4.17;2.03;;;13.80;99.90;;;;;;5053959;28;20237;-53
2021/12/31 12:59:02;;;;;;;7.40;2.00;;;13.80;99.90;;;;;;5061136;28;20208;-53
2021/12/31 13:01:41;;;;;;;6.43;1.83;;;13.90;99.90;;;;;;5056744;28;20225;-53
2021/12/31 13:04:10;;;;;;;2.63;2.03;;;13.90;99.90;;;;;;5053352;28;20234;-53